Time;durP1;ratioP1;P1;durP2;ratioP2;P2;SDS_P1;SDS_P2;PMS_P1;PMS_P2;Temp;Humidity;BMP_temperature;BMP_pressure;BME280_temperature;BME280_humidity;BME280_pressure;Samples;Min_cycle;Max_cycle;Signal;HPM_P1;HPM_P2
2023/09/10 00:00:47;;;;;;;127.23;115.33;;;;;;;18.36;100.00;101725.72;4973456;28;21005;-42
2023/09/10 00:03:15;;;;;;;393.17;136.50;;;;;;;18.65;100.00;101735.81;4981810;28;20434;-39
2023/09/10 00:05:43;;;;;;;469.07;151.40;;;;;;;18.75;100.00;101741.53;4973808;28;20439;-40
2023/09/10 00:08:11;;;;;;;709.90;190.13;;;;;;;18.79;100.00;101751.66;4975126;28;20485;-43
2023/09/10 00:10:41;;;;;;;395.20;142.27;;;;;;;18.77;100.00;101753.75;4977238;28;20562;-41
2023/09/10 00:13:11;;;;;;;779.00;208.33;;;;;;;18.73;100.00;101746.31;4977428;28;20506;-40
2023/09/10 00:15:39;;;;;;;642.27;187.87;;;;;;;18.82;100.00;101742.25;4977269;28;20521;-40
2023/09/10 00:18:07;;;;;;;750.67;207.77;;;;;;;18.84;100.00;101742.06;4983536;28;20464;-40
2023/09/10 00:20:35;;;;;;;718.63;207.90;;;;;;;18.91;100.00;101740.91;4977347;28;21008;-41
2023/09/10 00:23:03;;;;;;;455.83;176.17;;;;;;;18.87;100.00;101739.72;4977838;28;20438;-40
2023/09/10 00:25:31;;;;;;;643.00;213.60;;;;;;;18.96;100.00;101741.06;4977490;28;20438;-40
2023/09/10 00:27:58;;;;;;;479.13;184.30;;;;;;;18.96;100.00;101730.25;4981769;28;20454;-39
2023/09/10 00:30:28;;;;;;;741.23;216.20;;;;;;;18.96;100.00;101740.22;4977903;28;20525;-43
2023/09/10 00:32:56;;;;;;;640.17;205.93;;;;;;;19.06;100.00;101741.31;4982837;28;20941;-40
2023/09/10 00:35:24;;;;;;;611.00;203.33;;;;;;;19.08;100.00;101739.25;4977134;28;20481;-40
2023/09/10 00:37:52;;;;;;;455.77;198.13;;;;;;;19.12;100.00;101739.59;4981631;28;21067;-41
2023/09/10 00:40:20;;;;;;;697.53;238.80;;;;;;;19.18;100.00;101738.66;4979404;28;20462;-40
2023/09/10 00:42:47;;;;;;;634.93;240.13;;;;;;;19.14;100.00;101741.03;4977311;28;20496;-42
2023/09/10 00:45:15;;;;;;;341.77;210.20;;;;;;;19.08;100.00;101739.25;4976785;28;20462;-42
2023/09/10 00:47:46;;;;;;;440.63;229.47;;;;;;;19.02;100.00;101742.84;4977002;28;20458;-39
2023/09/10 00:50:15;;;;;;;378.07;226.07;;;;;;;18.99;100.00;101743.31;4976325;28;21080;-40
2023/09/10 00:52:47;;;;;;;393.10;230.50;;;;;;;18.95;100.00;101746.69;4977177;28;20531;-42
2023/09/10 00:55:15;;;;;;;313.37;221.50;;;;;;;18.93;100.00;101748.78;4976740;28;20481;-40
2023/09/10 00:57:43;;;;;;;275.00;229.47;;;;;;;18.84;100.00;101742.06;4976421;28;20454;-40
2023/09/10 01:00:13;;;;;;;280.50;231.87;;;;;;;18.78;100.00;101743.78;4984635;28;20493;-40
2023/09/10 01:02:43;;;;;;;272.53;230.17;;;;;;;18.85;100.00;101747.22;4984922;28;20521;-39
2023/09/10 01:05:12;;;;;;;310.37;251.50;;;;;;;18.79;100.00;101756.22;4977319;28;20431;-41
2023/09/10 01:07:40;;;;;;;269.17;236.10;;;;;;;18.73;100.00;101749.03;4976083;28;20443;-41
2023/09/10 01:10:09;;;;;;;255.97;228.77;;;;;;;18.76;100.00;101749.41;4976524;28;20517;-40
2023/09/10 01:12:50;;;;;;;263.20;233.80;;;;;;;18.78;100.00;101747.31;4976616;28;20439;-44
2023/09/10 01:15:26;;;;;;;252.03;224.83;;;;;;;18.84;100.00;101755.56;4976448;28;20470;-39
2023/09/10 01:18:01;;;;;;;233.20;210.60;;;;;;;18.92;100.00;101744.44;4976179;28;20453;-42
2023/09/10 01:20:47;;;;;;;227.03;203.80;;;;;;;18.96;100.00;101748.34;4983211;28;20465;-42
2023/09/10 01:23:17;;;;;;;219.90;192.37;;;;;;;18.96;100.00;101742.94;4976657;28;20927;-40
2023/09/10 01:25:46;;;;;;;217.50;190.60;;;;;;;19.00;100.00;101736.84;4977583;28;20497;-40
2023/09/10 01:28:14;;;;;;;186.00;166.53;;;;;;;19.06;100.00;101735.91;4979899;28;20459;-41
2023/09/10 01:30:42;;;;;;;178.73;160.63;;;;;;;19.06;100.00;101738.63;4979177;28;20468;-43
2023/09/10 01:33:17;;;;;;;170.37;152.33;;;;;;;19.11;100.00;101735.25;4989336;28;21028;-40
2023/09/10 01:35:51;;;;;;;168.07;149.17;;;;;;;19.07;100.00;101734.03;4967710;28;20889;-39
2023/09/10 01:38:26;;;;;;;161.77;144.73;;;;;;;19.06;100.00;101727.81;4975779;28;20895;-41
2023/09/10 01:41:00;;;;;;;163.60;145.40;;;;;;;19.07;100.00;101732.19;4975616;28;20462;-39
2023/09/10 01:43:30;;;;;;;149.33;133.40;;;;;;;19.08;100.00;101723.03;4976011;28;20438;-42
2023/09/10 01:45:57;;;;;;;148.87;133.10;;;;;;;19.05;100.00;101728.88;4984244;28;20521;-42
2023/09/10 01:48:27;;;;;;;150.40;130.00;;;;;;;19.03;100.00;101725.56;4976605;28;20875;-39
2023/09/10 01:50:55;;;;;;;151.87;130.60;;;;;;;19.03;100.00;101725.56;4982206;28;20553;-41
2023/09/10 01:53:23;;;;;;;159.40;126.93;;;;;;;18.99;100.00;101726.25;4975678;28;20433;-40
2023/09/10 01:55:51;;;;;;;142.13;125.10;;;;;;;18.93;100.00;101722.59;4976154;28;20570;-39
2023/09/10 01:58:20;;;;;;;159.90;125.80;;;;;;;18.86;100.00;101723.72;4982899;28;20540;-41
2023/09/10 02:00:48;;;;;;;143.37;116.00;;;;;;;18.68;100.00;101724.56;4975437;28;20522;-42
2023/09/10 02:03:15;;;;;;;150.90;122.27;;;;;;;18.61;100.00;101727.34;4976513;28;21092;-40
2023/09/10 02:05:43;;;;;;;163.40;126.03;;;;;;;18.51;100.00;101726.22;4976014;28;20534;-41
2023/09/10 02:08:11;;;;;;;153.87;125.07;;;;;;;18.47;100.00;101730.38;4975825;28;20454;-41
2023/09/10 02:10:39;;;;;;;148.43;117.60;;;;;;;18.38;100.00;101731.72;4970055;28;20462;-39
2023/09/10 02:13:06;;;;;;;145.27;118.33;;;;;;;18.40;100.00;101738.56;4976052;28;20846;-39
2023/09/10 02:15:35;;;;;;;138.20;114.07;;;;;;;18.38;100.00;101737.97;4974071;28;20510;-39
2023/09/10 02:18:03;;;;;;;137.50;111.77;;;;;;;18.30;100.00;101740.97;4969612;28;20533;-42
2023/09/10 02:20:35;;;;;;;136.33;109.63;;;;;;;18.16;100.00;101745.63;4975508;28;20509;-39
2023/09/10 02:23:03;;;;;;;135.30;109.43;;;;;;;18.16;100.00;101751.03;4976144;28;20449;-40
2023/09/10 02:25:32;;;;;;;135.93;105.53;;;;;;;18.08;100.00;101745.94;4967321;28;20437;-41
2023/09/10 02:28:01;;;;;;;140.13;115.70;;;;;;;18.03;100.00;101753.03;4974995;28;20501;-40
2023/09/10 02:30:28;;;;;;;136.50;109.47;;;;;;;18.01;100.00;101747.84;4974893;28;20454;-42
2023/09/10 02:32:57;;;;;;;138.77;110.87;;;;;;;17.97;100.00;101760.16;4975598;28;20525;-41
2023/09/10 02:35:25;;;;;;;146.20;109.00;;;;;;;18.07;100.00;101765.06;4967251;28;20513;-44
2023/09/10 02:37:53;;;;;;;148.33;109.17;;;;;;;18.03;100.00;101767.38;4966994;28;20458;-40
2023/09/10 02:40:20;;;;;;;144.60;111.73;;;;;;;18.03;100.00;101777.34;4967123;28;20466;-39
2023/09/10 02:42:48;;;;;;;146.67;108.47;;;;;;;18.00;100.00;101783.19;4975572;28;20963;-39
2023/09/10 02:45:16;;;;;;;159.47;113.13;;;;;;;17.94;100.00;101767.88;4975925;28;20493;-40
2023/09/10 02:47:44;;;;;;;155.33;114.07;;;;;;;18.00;100.00;101773.22;4974833;28;20458;-41
2023/09/10 02:50:13;;;;;;;150.87;112.77;;;;;;;17.98;100.00;101774.50;4974815;28;20525;-38
2023/09/10 02:52:41;;;;;;;130.10;101.17;;;;;;;17.89;100.00;101775.81;4975263;28;20439;-40
2023/09/10 02:55:09;;;;;;;131.53;99.73;;;;;;;17.83;100.00;101771.28;4975391;28;20901;-40
2023/09/10 02:57:37;;;;;;;129.53;101.70;;;;;;;17.80;100.00;101779.81;4975300;28;20462;-40
2023/09/10 03:00:07;;;;;;;130.93;101.77;;;;;;;17.81;100.00;101774.19;4975134;28;20542;-42
2023/09/10 03:02:35;;;;;;;134.57;98.73;;;;;;;17.87;100.00;101773.31;4974497;28;20459;-40
2023/09/10 03:05:03;;;;;;;126.87;97.67;;;;;;;17.93;100.00;101774.28;4968866;28;20436;-39
2023/09/10 03:07:33;;;;;;;129.93;100.13;;;;;;;17.95;100.00;101767.63;4975028;28;20486;-42
2023/09/10 03:10:00;;;;;;;132.30;102.20;;;;;;;17.92;100.00;101778.06;4974884;28;20458;-40
2023/09/10 03:12:30;;;;;;;124.23;97.70;;;;;;;17.81;100.00;101779.59;4975375;28;20442;-43
2023/09/10 03:14:58;;;;;;;142.80;103.10;;;;;;;17.79;100.00;101784.38;4975102;28;20475;-41
2023/09/10 03:17:26;;;;;;;132.83;102.87;;;;;;;17.76;100.00;101783.97;4974374;28;20435;-40
2023/09/10 03:19:53;;;;;;;120.53;99.70;;;;;;;17.72;100.00;101786.28;4974746;28;20545;-42
2023/09/10 03:22:21;;;;;;;122.07;101.10;;;;;;;17.81;100.00;101784.16;4974999;28;20903;-39
2023/09/10 03:24:50;;;;;;;134.60;102.63;;;;;;;17.92;100.00;101784.25;4975035;28;20808;-39
2023/09/10 03:27:18;;;;;;;129.63;102.20;;;;;;;17.96;100.00;101788.19;4974637;28;20466;-42
2023/09/10 03:29:46;;;;;;;131.37;100.23;;;;;;;17.96;100.00;101776.56;4971651;28;20581;-40
2023/09/10 03:32:14;;;;;;;133.73;101.83;;;;;;;18.03;100.00;101777.34;4969691;28;20811;-43
2023/09/10 03:34:45;;;;;;;127.50;96.00;;;;;;;17.95;100.00;101770.31;4975219;28;20438;-42
2023/09/10 03:37:13;;;;;;;114.90;93.50;;;;;;;17.97;100.00;101772.81;4974500;28;20458;-40
2023/09/10 03:39:41;;;;;;;124.40;97.03;;;;;;;17.91;100.00;101779.09;4966561;28;20884;-44
2023/09/10 03:42:10;;;;;;;116.23;94.90;;;;;;;17.87;100.00;101778.69;4974765;28;20797;-40
2023/09/10 03:44:37;;;;;;;117.10;93.03;;;;;;;17.77;100.00;101764.06;4978603;28;20435;-40
2023/09/10 03:47:05;;;;;;;114.33;93.87;;;;;;;17.65;100.00;101772.03;4970405;28;20525;-39
2023/09/10 03:49:33;;;;;;;122.40;88.47;;;;;;;17.65;100.00;101761.25;4978067;28;20482;-40
2023/09/10 03:52:01;;;;;;;121.73;91.33;;;;;;;17.74;100.00;101751.00;4978928;28;20464;-41
2023/09/10 03:54:28;;;;;;;127.00;93.20;;;;;;;17.78;100.00;101750.34;4978631;28;20478;-40
2023/09/10 03:56:56;;;;;;;122.47;93.03;;;;;;;17.82;100.00;101761.53;4978342;28;20553;-45
2023/09/10 03:59:25;;;;;;;123.63;93.60;;;;;;;17.77;100.00;101762.16;4978523;28;20513;-39
2023/09/10 04:01:58;;;;;;;117.10;90.87;;;;;;;17.82;100.00;101756.97;4979125;28;20439;-40
2023/09/10 04:04:26;;;;;;;126.57;95.10;;;;;;;17.84;100.00;101762.94;4970899;28;20505;-42
2023/09/10 04:06:54;;;;;;;113.07;88.37;;;;;;;17.89;100.00;101765.00;4978151;28;20814;-43
2023/09/10 04:09:23;;;;;;;112.30;90.30;;;;;;;17.88;100.00;101769.56;4977711;28;20466;-43
2023/09/10 04:11:51;;;;;;;119.70;90.40;;;;;;;17.87;100.00;101767.09;4975070;28;20443;-42
2023/09/10 04:14:18;;;;;;;109.07;90.30;;;;;;;17.79;100.00;101768.19;4967197;28;20449;-39
2023/09/10 04:16:47;;;;;;;104.60;89.70;;;;;;;17.76;100.00;101771.31;4977019;28;20894;-39
2023/09/10 04:19:15;;;;;;;109.00;91.63;;;;;;;17.67;100.00;101768.06;4977860;28;20450;-41
2023/09/10 04:21:43;;;;;;;101.30;85.77;;;;;;;17.56;100.00;101767.94;4977991;28;20431;-39
2023/09/10 04:24:11;;;;;;;111.20;87.57;;;;;;;17.46;100.00;101772.94;4978349;28;20806;-40
2023/09/10 04:26:39;;;;;;;106.27;88.80;;;;;;;17.46;100.00;101771.09;4977949;28;20825;-39
2023/09/10 04:29:06;;;;;;;103.60;84.10;;;;;;;17.48;100.00;101768.97;4977681;28;20454;-39
2023/09/10 04:31:40;;;;;;;109.60;83.27;;;;;;;17.42;100.00;101769.03;4977950;28;20916;-43
2023/09/10 04:34:09;;;;;;;109.37;83.67;;;;;;;17.36;100.00;101770.72;4977999;28;20431;-39
2023/09/10 04:36:37;;;;;;;108.03;85.57;;;;;;;17.47;100.00;101763.81;4977798;28;20470;-45
2023/09/10 04:39:08;;;;;;;112.80;86.40;;;;;;;17.53;100.00;101765.66;4977092;28;20454;-42
2023/09/10 04:41:36;;;;;;;115.03;83.90;;;;;;;17.58;100.00;101763.16;4978243;28;20434;-39
2023/09/10 04:44:04;;;;;;;108.20;81.83;;;;;;;17.57;100.00;101769.59;4973446;28;20439;-42
2023/09/10 04:46:32;;;;;;;106.90;80.77;;;;;;;17.56;100.00;101766.06;4974663;28;20605;-41
2023/09/10 04:49:00;;;;;;;99.53;81.80;;;;;;;17.47;100.00;101766.53;4977107;28;20454;-39
2023/09/10 04:51:29;;;;;;;102.20;78.80;;;;;;;17.48;100.00;101770.84;4978056;28;20783;-40
2023/09/10 04:53:57;;;;;;;102.20;80.77;;;;;;;17.51;100.00;101775.81;4969056;28;20523;-40
2023/09/10 04:56:24;;;;;;;98.40;78.67;;;;;;;17.50;100.00;101776.88;4978026;28;20480;-41
2023/09/10 04:58:52;;;;;;;99.73;80.63;;;;;;;17.48;100.00;101774.38;4977275;28;20486;-39
2023/09/10 05:01:20;;;;;;;96.90;77.53;;;;;;;17.52;100.00;101785.56;4977566;28;20442;-42
2023/09/10 05:03:48;;;;;;;90.17;75.47;;;;;;;17.50;100.00;101779.56;4977329;28;20453;-39
2023/09/10 05:06:16;;;;;;;84.97;75.80;;;;;;;17.51;100.00;101781.19;4977813;28;20430;-42
2023/09/10 05:08:45;;;;;;;80.37;70.30;;;;;;;17.53;100.00;101785.34;4976661;28;21045;-40
2023/09/10 05:11:14;;;;;;;83.77;68.83;;;;;;;17.53;100.00;101785.34;4977600;28;20521;-40
2023/09/10 05:13:42;;;;;;;83.60;65.40;;;;;;;17.45;100.00;101785.59;4977335;28;20439;-40
2023/09/10 05:16:10;;;;;;;85.70;65.23;;;;;;;17.57;100.00;101783.91;4977286;28;20470;-39
2023/09/10 05:18:37;;;;;;;73.87;65.03;;;;;;;17.51;100.00;101794.69;4976908;28;20883;-40
2023/09/10 05:21:05;;;;;;;86.53;68.20;;;;;;;17.52;100.00;101786.41;4976687;28;20465;-40
2023/09/10 05:23:34;;;;;;;68.60;61.10;;;;;;;17.55;100.00;101790.56;4976774;28;20456;-39
2023/09/10 05:26:03;;;;;;;71.10;63.50;;;;;;;17.58;100.00;101788.25;4969597;28;20922;-39
2023/09/10 05:28:31;;;;;;;70.67;62.97;;;;;;;17.54;100.00;101800.50;4976833;28;20450;-40
2023/09/10 05:31:04;;;;;;;73.80;65.23;;;;;;;17.51;100.00;101795.53;4969057;28;20466;-40
2023/09/10 05:33:33;;;;;;;78.47;61.00;;;;;;;17.54;100.00;101781.63;4976885;28;20438;-39
2023/09/10 05:36:01;;;;;;;69.43;61.87;;;;;;;17.55;100.00;101787.84;4977679;28;20479;-39
2023/09/10 05:38:28;;;;;;;70.40;60.93;;;;;;;17.56;100.00;101794.91;4976702;28;20520;-39
2023/09/10 05:41:04;;;;;;;68.47;60.90;;;;;;;17.58;100.00;101806.31;4976259;28;20462;-39
2023/09/10 05:43:32;;;;;;;67.37;60.03;;;;;;;17.52;100.00;101802.56;4977118;28;20447;-41
2023/09/10 05:46:00;;;;;;;70.73;63.47;;;;;;;17.53;100.00;101800.72;4977288;28;20498;-39
2023/09/10 05:48:29;;;;;;;71.93;61.97;;;;;;;17.57;100.00;101799.25;4976337;28;20486;-42
2023/09/10 05:50:57;;;;;;;66.80;59.50;;;;;;;17.65;100.00;101807.09;4976123;28;20573;-40
2023/09/10 05:53:24;;;;;;;63.93;57.40;;;;;;;17.63;100.00;101795.69;4977196;28;20592;-40
2023/09/10 05:55:52;;;;;;;65.80;58.63;;;;;;;17.69;100.00;101802.91;4977042;28;20435;-39
2023/09/10 05:58:21;;;;;;;65.10;57.97;;;;;;;17.63;100.00;101803.78;4976301;28;20461;-40
2023/09/10 06:00:51;;;;;;;66.20;59.10;;;;;;;17.61;100.00;101808.56;4975795;28;20516;-39
2023/09/10 06:03:19;;;;;;;70.27;62.67;;;;;;;17.69;100.00;101808.31;4976821;28;20439;-40
2023/09/10 06:05:49;;;;;;;73.77;62.20;;;;;;;17.65;100.00;101818.69;4976078;28;20434;-39
2023/09/10 06:08:16;;;;;;;74.50;62.50;;;;;;;17.72;100.00;101815.13;4968068;28;20458;-39
2023/09/10 06:10:44;;;;;;;79.33;64.93;;;;;;;17.71;100.00;101814.34;4976207;28;21025;-40
2023/09/10 06:13:12;;;;;;;79.60;63.70;;;;;;;17.68;100.00;101828.25;4976405;28;20438;-41
2023/09/10 06:15:41;;;;;;;72.83;61.10;;;;;;;17.70;100.00;101812.66;4976556;28;20438;-41
2023/09/10 06:18:09;;;;;;;69.50;61.80;;;;;;;17.60;100.00;101833.88;4976249;28;20474;-40
2023/09/10 06:20:37;;;;;;;63.67;56.87;;;;;;;17.66;100.00;101835.72;4975634;28;20986;-40
2023/09/10 06:23:04;;;;;;;66.80;59.70;;;;;;;17.69;100.00;101829.88;4972255;28;20474;-41
2023/09/10 06:25:33;;;;;;;68.40;60.93;;;;;;;17.50;100.00;101837.00;4972297;28;20485;-43
2023/09/10 06:28:01;;;;;;;68.87;61.97;;;;;;;17.47;100.00;101837.44;4976068;28;20545;-40
2023/09/10 06:30:28;;;;;;;71.53;63.73;;;;;;;17.60;100.00;101837.41;4975547;28;21048;-42
2023/09/10 06:32:58;;;;;;;69.43;62.33;;;;;;;17.64;100.00;101844.03;4975819;28;20434;-43
2023/09/10 06:35:26;;;;;;;67.10;60.50;;;;;;;17.61;100.00;101836.38;4970029;28;20446;-40
2023/09/10 06:37:54;;;;;;;68.73;61.47;;;;;;;17.59;100.00;101833.03;4975401;28;20561;-41
2023/09/10 06:40:22;;;;;;;72.53;60.97;;;;;;;17.62;100.00;101832.63;4975205;28;20549;-40
2023/09/10 06:42:50;;;;;;;65.43;58.93;;;;;;;17.62;100.00;101839.91;4975577;28;20517;-41
2023/09/10 06:45:17;;;;;;;66.07;59.67;;;;;;;17.71;100.00;101840.47;4976053;28;20463;-40
2023/09/10 06:47:45;;;;;;;68.03;61.30;;;;;;;17.65;100.00;101837.56;4975442;28;20451;-40
2023/09/10 06:50:14;;;;;;;65.57;58.87;;;;;;;17.64;100.00;101837.81;4975660;28;20461;-43
2023/09/10 06:52:42;;;;;;;63.00;56.67;;;;;;;17.53;100.00;101836.56;4976046;28;20434;-40
2023/09/10 06:55:10;;;;;;;66.47;59.97;;;;;;;17.46;100.00;101843.06;4976115;28;20445;-41
2023/09/10 06:57:38;;;;;;;63.13;57.37;;;;;;;17.39;100.00;101848.47;4975403;28;20525;-40
2023/09/10 07:00:07;;;;;;;61.20;55.37;;;;;;;17.41;100.00;101850.97;4975523;28;20542;-40
2023/09/10 07:02:34;;;;;;;62.73;56.73;;;;;;;17.35;100.00;101854.53;4975332;28;20867;-41
2023/09/10 07:05:03;;;;;;;65.97;59.53;;;;;;;17.37;100.00;101858.66;4975775;28;20525;-42
2023/09/10 07:07:32;;;;;;;67.63;60.97;;;;;;;17.53;100.00;101858.16;4967906;28;20440;-41
2023/09/10 07:10:00;;;;;;;70.17;63.13;;;;;;;17.52;100.00;101855.69;4967227;28;20466;-43
2023/09/10 07:12:28;;;;;;;68.87;61.77;;;;;;;17.57;100.00;101861.28;4975533;28;20437;-40
2023/09/10 07:14:55;;;;;;;68.97;62.07;;;;;;;17.59;100.00;101859.22;4975562;28;21169;-40
2023/09/10 07:17:23;;;;;;;67.17;60.67;;;;;;;17.63;100.00;101865.81;4974631;28;20562;-41
2023/09/10 07:19:52;;;;;;;70.20;63.50;;;;;;;17.58;100.00;101866.47;4975272;28;20546;-41
2023/09/10 07:22:20;;;;;;;68.53;61.57;;;;;;;17.69;100.00;101867.66;4975621;28;20466;-46
2023/09/10 07:24:49;;;;;;;66.50;59.97;;;;;;;17.62;100.00;101873.06;4975175;28;20445;-40
2023/09/10 07:27:16;;;;;;;65.47;58.73;;;;;;;17.76;100.00;101863.06;4975326;28;20435;-40
2023/09/10 07:29:44;;;;;;;69.00;61.80;;;;;;;17.85;100.00;101869.03;4974714;28;20649;-40
2023/09/10 07:32:12;;;;;;;66.53;59.93;;;;;;;17.94;100.00;101871.25;4975491;28;20526;-41
2023/09/10 07:34:39;;;;;;;62.10;56.33;;;;;;;17.98;100.00;101874.34;4967065;28;20434;-40
2023/09/10 07:37:07;;;;;;;65.13;58.70;;;;;;;18.12;100.00;101867.81;4975262;28;20478;-40
2023/09/10 07:39:38;;;;;;;64.90;58.90;;;;;;;18.25;100.00;101870.38;4974647;28;20457;-41
2023/09/10 07:42:07;;;;;;;65.83;59.53;;;;;;;18.32;100.00;101864.94;4963635;28;20439;-43
2023/09/10 07:44:35;;;;;;;63.63;57.07;;;;;;;18.47;100.00;101870.84;4955598;29;20439;-41
2023/09/10 07:47:03;;;;;;;69.63;62.63;;;;;;;18.56;100.00;101870.38;4955005;28;20486;-40
2023/09/10 07:49:31;;;;;;;63.93;57.77;;;;;;;18.71;100.00;101872.72;4954972;28;20566;-40
2023/09/10 07:51:58;;;;;;;66.90;60.17;;;;;;;18.77;100.00;101879.94;4972300;28;20524;-44
2023/09/10 07:54:26;;;;;;;66.57;60.20;;;;;;;18.57;100.00;101877.44;4968425;28;20514;-40
2023/09/10 07:56:54;;;;;;;68.73;61.77;;;;;;;18.53;100.00;101883.50;4955161;28;20439;-41
2023/09/10 07:59:23;;;;;;;67.17;58.97;;;;;;;18.61;100.00;101888.59;4955157;28;21257;-41
2023/09/10 08:01:51;;;;;;;64.60;58.50;;;;;;;18.73;100.00;101889.53;4954939;28;20473;-40
2023/09/10 08:04:18;;;;;;;69.00;62.20;;;;;;;18.94;100.00;101883.72;4970713;28;20461;-40
2023/09/10 08:06:46;;;;;;;69.00;61.47;;;;;;;18.99;100.00;101869.53;4965662;28;20514;-42
2023/09/10 08:09:14;;;;;;;66.23;59.37;;;;;;;19.23;100.00;101880.25;4977049;28;20489;-40
2023/09/10 08:11:41;;;;;;;68.37;61.50;;;;;;;19.42;100.00;101874.88;4980711;28;20545;-41
2023/09/10 08:14:09;;;;;;;69.43;62.43;;;;;;;19.58;100.00;101872.38;4982680;28;20442;-40
2023/09/10 08:16:38;;;;;;;63.23;56.93;;;;;;;19.68;100.00;101867.22;4987713;28;20437;-42
2023/09/10 08:19:06;;;;;;;64.53;57.53;;;;;;;19.75;100.00;101867.97;4991412;28;21553;-40
2023/09/10 08:21:34;;;;;;;65.33;58.67;;;;;;;19.65;100.00;101864.19;4973984;28;20434;-42
2023/09/10 08:24:01;;;;;;;63.20;57.10;;;;;;;19.65;100.00;101878.50;4970135;28;20434;-41
2023/09/10 08:26:29;;;;;;;61.37;55.67;;;;;;;19.66;100.00;101865.81;4967106;28;20462;-40
2023/09/10 08:28:57;;;;;;;60.83;55.13;;;;;;;19.81;100.00;101874.34;4987833;28;20481;-42
2023/09/10 08:31:25;;;;;;;57.90;52.40;;;;;;;20.12;100.00;101870.56;4990382;28;20434;-41
2023/09/10 08:33:54;;;;;;;64.43;58.17;;;;;;;20.30;100.00;101862.38;4978483;28;20445;-43
2023/09/10 08:36:22;;;;;;;65.77;59.47;;;;;;;20.35;100.00;101871.44;4990264;28;20462;-40
2023/09/10 08:38:49;;;;;;;63.03;57.00;;;;;;;20.42;100.00;101858.63;4980698;28;20578;-41
2023/09/10 08:41:24;;;;;;;62.30;56.27;;;;;;;20.32;100.00;101861.06;4988705;28;20433;-42
2023/09/10 08:43:58;;;;;;;61.37;55.60;;;;;;;20.37;100.00;101854.94;4990995;28;20533;-41
2023/09/10 08:46:31;;;;;;;63.17;57.10;;;;;;;20.61;100.00;101861.22;4994349;28;20444;-42
2023/09/10 08:49:01;;;;;;;58.60;53.03;;;;;;;20.96;100.00;101865.56;4972988;28;20457;-46
2023/09/10 08:51:31;;;;;;;63.40;57.40;;;;;;;21.29;100.00;101869.53;4979046;28;20575;-40
2023/09/10 08:54:01;;;;;;;61.07;55.57;;;;;;;21.15;100.00;101868.97;4981715;28;20466;-42
2023/09/10 08:56:30;;;;;;;58.03;52.73;;;;;;;21.25;100.00;101877.31;4984595;28;20433;-42
2023/09/10 08:58:58;;;;;;;63.97;58.00;;;;;;;21.38;100.00;101876.22;4987497;28;20527;-43
2023/09/10 09:01:26;;;;;;;60.17;54.33;;;;;;;21.48;100.00;101874.53;4979054;28;20471;-41
2023/09/10 09:03:53;;;;;;;62.00;56.00;;;;;;;21.52;100.00;101878.44;4979620;28;20514;-43
2023/09/10 09:06:27;;;;;;;62.17;56.27;;;;;;;21.68;100.00;101876.84;4982221;28;20438;-43
2023/09/10 09:08:58;;;;;;;56.67;51.47;;;;;;;21.77;100.00;101872.66;4987120;28;20453;-43
2023/09/10 09:11:28;;;;;;;60.20;54.77;;;;;;;21.92;100.00;101866.72;4979967;28;20514;-43
2023/09/10 09:13:56;;;;;;;55.33;50.40;;;;;;;21.83;100.00;101866.22;4982423;28;20776;-41
2023/09/10 09:16:24;;;;;;;59.40;53.90;;;;;;;21.63;100.00;101868.56;4985988;28;20950;-41
2023/09/10 09:18:54;;;;;;;58.53;53.03;;;;;;;21.62;100.00;101872.38;4982964;28;20478;-43
2023/09/10 09:21:25;;;;;;;53.77;48.97;;;;;;;22.02;100.00;101872.31;4978830;28;20531;-41
2023/09/10 09:23:58;;;;;;;53.70;48.80;;;;;;;22.41;100.00;101868.63;4979991;28;20441;-43
2023/09/10 09:26:27;;;;;;;52.13;47.57;;;;;;;23.06;100.00;101868.78;4978754;28;20494;-41
2023/09/10 09:28:56;;;;;;;53.97;49.13;;;;;;;23.36;100.00;101857.47;4984494;28;20449;-43
2023/09/10 09:31:25;;;;;;;55.30;50.40;;;;;;;23.69;100.00;101857.34;4973314;28;20863;-44
2023/09/10 09:33:52;;;;;;;54.87;49.97;;;;;;;23.62;100.00;101847.72;4981365;28;20438;-46
2023/09/10 09:36:25;;;;;;;54.00;49.10;;;;;;;23.50;100.00;101847.06;4981276;28;20858;-44
2023/09/10 09:38:55;;;;;;;52.20;47.50;;;;;;;22.98;100.00;101844.75;4985543;28;20868;-42
2023/09/10 09:41:22;;;;;;;54.17;49.47;;;;;;;23.04;100.00;101843.75;4979362;28;20525;-43
2023/09/10 09:43:50;;;;;;;46.10;42.40;;;;;;;23.73;100.00;101841.31;4981833;28;20438;-46
2023/09/10 09:46:18;;;;;;;54.07;49.57;;;;;;;24.13;100.00;101843.63;4985555;28;20434;-45
2023/09/10 09:48:47;;;;;;;50.03;45.90;;;;;;;24.25;100.00;101838.81;4975871;28;20449;-44
2023/09/10 09:51:16;;;;;;;51.17;46.67;;;;;;;24.57;100.00;101827.84;4979242;28;20461;-45
2023/09/10 09:53:44;;;;;;;50.10;45.93;;;;;;;24.72;100.00;101839.69;4976691;28;20431;-43
2023/09/10 09:56:17;;;;;;;49.67;45.50;;;;;;;24.67;100.00;101842.34;4985137;28;20434;-43
2023/09/10 09:58:45;;;;;;;48.30;44.30;;;;;;;24.54;100.00;101822.91;4983875;28;20488;-42
2023/09/10 10:01:13;;;;;;;49.20;44.50;;;;;;;24.23;100.00;101822.69;4982864;28;20437;-44
2023/09/10 10:03:41;;;;;;;50.90;46.40;;;;;;;24.64;100.00;101826.53;4978730;28;20446;-41
2023/09/10 10:06:08;;;;;;;49.47;45.33;;;;;;;24.94;100.00;101822.38;4982274;28;20458;-43
2023/09/10 10:08:37;;;;;;;50.27;45.80;;;;;;;25.07;100.00;101828.13;4983346;28;20862;-41
2023/09/10 10:11:05;;;;;;;49.10;44.90;;;;;;;25.27;100.00;101822.75;4980774;28;20525;-42
2023/09/10 10:13:34;;;;;;;48.13;43.90;;;;;;;25.28;100.00;101815.38;4974463;28;20446;-42
2023/09/10 10:16:03;;;;;;;47.20;43.40;;;;;;;25.42;100.00;101815.72;4979494;28;20441;-44
2023/09/10 10:18:31;;;;;;;46.77;42.80;;;;;;;25.57;100.00;101818.47;4988496;28;20505;-42
2023/09/10 10:21:00;;;;;;;46.50;42.57;;;;;;;25.51;100.00;101812.19;4983973;28;20465;-44
2023/09/10 10:23:28;;;;;;;42.30;38.97;;;;;;;25.65;100.00;101815.25;4979189;28;20442;-42
2023/09/10 10:25:59;;;;;;;46.30;42.10;;;;;;;25.67;100.00;101819.34;4974387;28;20529;-45
2023/09/10 10:28:28;;;;;;;43.37;39.80;;;;;;;25.89;100.00;101819.09;4984529;28;20461;-43
2023/09/10 10:31:03;;;;;;;42.47;38.67;;;;;;;25.84;100.00;101802.69;4985247;28;20465;-44
2023/09/10 10:33:34;;;;;;;42.03;38.43;;;;;;;25.75;100.00;101807.03;4977658;28;20437;-43
2023/09/10 10:36:08;;;;;;;39.40;36.00;;;;;;;25.70;100.00;101813.34;4975935;28;21205;-40
2023/09/10 10:38:42;;;;;;;42.30;38.53;;;;;;;25.80;100.00;101812.53;4983686;28;20445;-42
2023/09/10 10:41:14;;;;;;;41.10;36.97;;;;;;;25.97;100.00;101814.97;4977948;28;20536;-43
2023/09/10 10:43:47;;;;;;;39.40;35.60;;;;;;;26.20;100.00;101822.66;4978301;28;20457;-42
2023/09/10 10:46:19;;;;;;;38.40;34.97;;;;;;;26.42;100.00;101815.00;4983989;28;20441;-43
2023/09/10 10:48:47;;;;;;;38.10;34.80;;;;;;;26.24;100.00;101807.34;4980664;28;20445;-44
2023/09/10 10:51:17;;;;;;;37.70;34.60;;;;;;;26.22;100.00;101799.41;4973706;28;20509;-44
2023/09/10 10:53:46;;;;;;;37.13;33.80;;;;;;;25.90;100.00;101798.03;4986408;28;20456;-43
2023/09/10 10:56:14;;;;;;;36.70;33.30;;;;;;;25.98;100.00;101800.25;4983620;28;20433;-43
2023/09/10 10:58:43;;;;;;;36.90;33.50;;;;;;;25.64;100.00;101798.03;4983078;28;21152;-41
2023/09/10 11:01:12;;;;;;;37.83;34.43;;;;;;;25.37;100.00;101802.84;4980881;28;20462;-43
2023/09/10 11:03:44;;;;;;;38.43;34.70;;;;;;;25.64;100.00;101808.13;4980051;28;20470;-41